Callicoon, New York
Current Conditions -  °F | °C
As of 5:15 AM on Friday 21 Nov 2014 (Local Time) from KMSV Reporting Station
Clear Clear  
Wind Chill:   Ceiling: Unl
Heat Index: 18°   Visibility: 10mi
Dew Point: 10°   Wind: 7mph
Humidity: 73%   Direction: 290°WNW
Pressure: 30.03"   Gusts: NA
Location:  41.77°N, 75.06°W
Report Text: KMSV 211015Z AUTO 29006KT 10SM CLR M08/M12 A3003 RMK AO1
Loading
Personal Weather Stations






























Interactive Weather Map New forecast layout! Learn more

10-Day Weather Forecast

Advertisements
Track Severe Weather on mobile